This is the latest recevied weather packets stored in our database for station/object AI5BL. If no packets are shown the sender has not sent any weather packets the latest 1 day(s).
| Time | Temp. | Humidity | Pressure | Rain* | Wind** | Luminosity | Snow |
|---|---|---|---|---|---|---|---|
| 1778013796 | 26.11° C | 63% | 1013.6 hPa | 0 mm | 1.79 m/s, 104° | 229 W/m² | - |
| 1778013493 | 25.56° C | 67% | 1013.6 hPa | 0 mm | 0 m/s | 242 W/m² | - |
| 1778013190 | 26.11° C | 63% | 1013.8 hPa | 0 mm | 0.45 m/s, 123° | 184 W/m² | - |
| 1778012886 | 26.11° C | 63% | 1013.8 hPa | 0 mm | 0 m/s | 196 W/m² | - |
| 1778012582 | 26.11° C | 68% | 1014 hPa | 0 mm | 0 m/s | 194 W/m² | - |
| 1778012279 | 26.11° C | 65% | 1013.8 hPa | 0 mm | 0.89 m/s, 81° | 255 W/m² | - |
| 1778011976 | 26.11° C | 69% | 1014 hPa | 0 mm | 0 m/s | 256 W/m² | - |
| 1778011675 | 26.11° C | 67% | 1014 hPa | 0 mm | 0 m/s | 212 W/m² | - |
| 1778011371 | 25.56° C | 70% | 1014.3 hPa | 0 mm | 0.89 m/s, 152° | 204 W/m² | - |
| 1778011067 | 26.11° C | 65% | 1014.2 hPa | 0 mm | 0.45 m/s, 138° | 157 W/m² | - |
| 1778010765 | 26.67° C | 64% | 1014.3 hPa | 0 mm | 0.45 m/s, 118° | 198 W/m² | - |
| 1778010461 | 26.67° C | 64% | 1014.2 hPa | 0 mm | 0.89 m/s, 140° | 245 W/m² | - |
| 1778010158 | 26.67° C | 67% | 1014.3 hPa | 0 mm | 0 m/s | 272 W/m² | - |
| 1778009854 | 26.67° C | 59% | 1014.2 hPa | 0 mm | 0.89 m/s, 65° | 297 W/m² | - |
| 1778009551 | 26.67° C | 60% | 1014.4 hPa | 0 mm | 0.89 m/s, 111° | 344 W/m² | - |
| 1778009250 | 26.67° C | 62% | 1014.5 hPa | 0 mm | 0.89 m/s, 276° | 309 W/m² | - |
| 1778008947 | 26.67° C | 62% | 1014.6 hPa | 0 mm | 0.45 m/s, 108° | 344 W/m² | - |
| 1778008645 | 26.67° C | 61% | 1014.5 hPa | 0 mm | 0.45 m/s, 109° | 299 W/m² | - |
| 1778008343 | 27.22° C | 57% | 1014.9 hPa | 0 mm | 0 m/s | 300 W/m² | - |
| 1778008039 | 26.67° C | 60% | 1014.8 hPa | 0 mm | 0.45 m/s, 75° | 289 W/m² | - |
| 1778007739 | 27.78° C | 56% | 1015 hPa | 0 mm | 0 m/s | 326 W/m² | - |
| 1778007436 | 27.22° C | 58% | 1014.8 hPa | 0 mm | 0 m/s | 600 W/m² | - |
| 1778007132 | 26.67° C | 58% | 1014.9 hPa | 0 mm | 0.45 m/s, 119° | 492 W/m² | - |
| 1778006828 | 26.67° C | 62% | 1015.1 hPa | 0 mm | 0.45 m/s, 111° | 574 W/m² | - |
| 1778006526 | 26.67° C | 58% | 1014.9 hPa | 0 mm | 0 m/s | 494 W/m² | - |
* Rain latest hour (hover to see other rain measurements)
** Current wind speed in m/s (hover to see current wind gust speed)